createdAt,value
2019-01-11T00:00:23.020Z,11.97
2019-01-11T00:02:54.295Z,11.83
2019-01-11T00:05:25.532Z,9.67
2019-01-11T00:07:56.818Z,14.20
2019-01-11T00:10:28.043Z,12.97
2019-01-11T00:12:59.407Z,15.10
2019-01-11T00:15:31.349Z,15.07
2019-01-11T00:18:02.633Z,16.17
2019-01-11T00:20:33.926Z,12.33
2019-01-11T00:23:05.938Z,17.37
2019-01-11T00:25:37.127Z,16.53
2019-01-11T00:28:08.459Z,19.17
2019-01-11T00:30:39.712Z,23.97
2019-01-11T00:33:10.820Z,16.03
2019-01-11T00:35:42.101Z,15.13
2019-01-11T00:38:13.332Z,14.97
2019-01-11T00:40:44.614Z,21.33
2019-01-11T00:43:15.823Z,13.63
2019-01-11T00:45:47.102Z,17.10
2019-01-11T00:48:18.370Z,17.13
2019-01-11T00:50:49.633Z,13.90
2019-01-11T00:53:22.424Z,18.80
2019-01-11T00:55:55.587Z,17.80
2019-01-11T00:58:29.220Z,18.90
2019-01-11T01:01:02.628Z,18.90
2019-01-11T01:03:35.882Z,18.90
2019-01-11T01:06:09.287Z,15.80
2019-01-11T01:08:42.662Z,12.00
2019-01-11T01:11:14.395Z,15.00
2019-01-11T01:13:45.740Z,14.13
2019-01-11T01:16:17.052Z,14.30
2019-01-11T01:18:48.296Z,16.60
2019-01-11T01:21:19.606Z,14.10
2019-01-11T01:23:50.928Z,14.10
2019-01-11T01:26:22.300Z,15.10
2019-01-11T01:28:53.609Z,13.10
2019-01-11T01:31:24.859Z,15.63
2019-01-11T01:33:56.142Z,12.57
2019-01-11T01:36:27.454Z,18.00
2019-01-11T01:38:58.872Z,19.40
2019-01-11T01:41:30.106Z,24.00
2019-01-11T01:44:01.359Z,16.73
2019-01-11T01:46:32.735Z,16.97
2019-01-11T01:49:04.022Z,17.20
2019-01-11T01:51:35.267Z,21.90
2019-01-11T01:54:07.175Z,23.97
2019-01-11T01:56:38.471Z,25.37
2019-01-11T01:59:09.784Z,17.00
2019-01-11T02:01:41.079Z,16.33
2019-01-11T02:04:12.393Z,19.17
2019-01-11T02:06:43.685Z,19.27
2019-01-11T02:09:14.915Z,18.10
2019-01-11T02:11:46.972Z,18.03
2019-01-11T02:14:18.225Z,22.93
2019-01-11T02:16:49.506Z,14.27
2019-01-11T02:19:20.806Z,23.90
2019-01-11T02:21:52.806Z,18.93
2019-01-11T02:24:24.035Z,17.30
2019-01-11T02:26:55.298Z,18.67
2019-01-11T02:29:26.472Z,22.13
2019-01-11T02:31:57.760Z,21.17
2019-01-11T02:34:29.015Z,20.43
2019-01-11T02:37:00.259Z,21.03
2019-01-11T02:39:31.525Z,20.10
2019-01-11T02:42:02.795Z,21.33
2019-01-11T02:44:34.063Z,24.57
2019-01-11T02:47:05.462Z,29.20
2019-01-11T02:49:40.220Z,24.63
2019-01-11T02:52:09.551Z,27.23
2019-01-11T02:54:40.879Z,27.97
2019-01-11T02:57:12.131Z,32.00
2019-01-11T02:59:43.397Z,28.70
2019-01-11T03:02:14.641Z,28.07
2019-01-11T03:04:45.913Z,27.43
2019-01-11T03:07:17.147Z,27.37
2019-01-11T03:09:48.419Z,24.00
2019-01-11T03:12:19.651Z,25.70
2019-01-11T03:14:50.839Z,21.30
2019-01-11T03:17:22.018Z,24.40
2019-01-11T03:19:53.303Z,21.40
2019-01-11T03:22:24.649Z,20.10
2019-01-11T03:24:55.920Z,25.23
2019-01-11T03:27:27.229Z,21.13
2019-01-11T03:29:58.469Z,20.93
2019-01-11T03:32:29.744Z,23.57
2019-01-11T03:35:25.828Z,23.73
2019-01-11T03:37:57.123Z,23.43
2019-01-11T03:40:28.508Z,24.50
2019-01-11T03:42:59.893Z,24.87
2019-01-11T03:45:31.172Z,30.27
2019-01-11T03:48:02.424Z,22.73
2019-01-11T03:50:33.680Z,26.90
2019-01-11T03:53:05.094Z,22.60
2019-01-11T03:55:36.346Z,23.03
2019-01-11T03:58:07.670Z,22.90
2019-01-11T04:00:38.953Z,19.80
2019-01-11T04:03:10.178Z,23.90
2019-01-11T04:05:41.392Z,22.63
2019-01-11T04:08:12.585Z,23.20
2019-01-11T04:10:43.815Z,23.73
2019-01-11T04:13:15.761Z,24.77
2019-01-11T04:15:47.032Z,24.57
2019-01-11T04:18:35.556Z,26.30
2019-01-11T04:21:06.901Z,23.70
2019-01-11T04:23:38.178Z,24.90
2019-01-11T04:26:09.425Z,23.20
2019-01-11T04:28:40.712Z,27.57
2019-01-11T04:31:11.945Z,26.20
2019-01-11T04:33:43.184Z,24.90
2019-01-11T04:36:14.495Z,26.77
2019-01-11T04:38:45.792Z,27.70
2019-01-11T04:41:17.350Z,26.27
2019-01-11T04:43:48.607Z,23.57
2019-01-11T04:46:19.897Z,24.93
2019-01-11T04:48:51.178Z,27.93
2019-01-11T04:51:22.459Z,26.20
2019-01-11T04:53:53.731Z,27.53
2019-01-11T04:56:25.018Z,32.40
2019-01-11T04:58:56.246Z,26.10
2019-01-11T05:01:27.527Z,26.60
2019-01-11T05:03:58.832Z,24.00
2019-01-11T05:06:30.072Z,32.60
2019-01-11T05:09:01.361Z,32.53
2019-01-11T05:11:32.824Z,27.80
2019-01-11T05:14:04.120Z,35.67
2019-01-11T05:16:39.417Z,37.93
2019-01-11T05:19:08.293Z,32.63
2019-01-11T05:21:39.446Z,40.40
2019-01-11T05:24:10.726Z,30.77
2019-01-11T05:26:41.999Z,34.37
2019-01-11T05:29:13.241Z,35.17
2019-01-11T05:31:44.531Z,40.40
2019-01-11T05:34:15.752Z,41.70
2019-01-11T05:36:47.086Z,35.20
2019-01-11T05:39:18.352Z,32.60
2019-01-11T05:41:49.630Z,37.67
2019-01-11T05:44:20.788Z,31.70
2019-01-11T05:46:52.224Z,39.90
2019-01-11T05:49:23.461Z,41.17
2019-01-11T05:51:54.656Z,41.57
2019-01-11T05:54:25.902Z,38.20
2019-01-11T05:56:57.231Z,34.73
2019-01-11T05:59:28.504Z,42.63
2019-01-11T06:01:59.823Z,42.20
2019-01-11T06:04:49.804Z,42.80
2019-01-11T06:07:42.733Z,42.33
2019-01-11T06:10:16.681Z,40.13
2019-01-11T06:12:47.910Z,40.23
2019-01-11T06:15:19.189Z,44.37
2019-01-11T06:17:50.418Z,50.13
2019-01-11T06:20:21.987Z,45.17
2019-01-11T06:22:53.219Z,55.17
2019-01-11T06:25:24.431Z,57.20
2019-01-11T06:27:55.663Z,45.03
2019-01-11T06:30:26.871Z,50.77
2019-01-11T06:32:58.091Z,51.40
2019-01-11T06:35:29.405Z,47.43
2019-01-11T06:38:00.712Z,56.80
2019-01-11T06:40:31.972Z,55.67
2019-01-11T06:43:03.669Z,58.57
2019-01-11T06:45:35.072Z,66.20
2019-01-11T06:48:12.296Z,50.80
2019-01-11T06:50:43.574Z,48.20
2019-01-11T06:53:14.818Z,61.00
2019-01-11T06:55:45.960Z,58.73
2019-01-11T06:58:17.255Z,49.80
2019-01-11T07:00:48.519Z,45.93
2019-01-11T07:03:19.849Z,54.37
2019-01-11T07:05:51.100Z,45.33
2019-01-11T07:08:22.638Z,57.97
2019-01-11T07:10:53.942Z,51.60
2019-01-11T07:13:25.197Z,51.40
2019-01-11T07:15:56.504Z,51.93
2019-01-11T07:18:27.756Z,68.97
2019-01-11T07:20:59.029Z,53.57
2019-01-11T07:23:30.316Z,65.37
2019-01-11T07:26:01.616Z,54.97
2019-01-11T07:28:32.762Z,55.97
2019-01-11T07:31:07.380Z,75.33
2019-01-11T07:33:38.700Z,53.50
2019-01-11T07:36:28.808Z,50.37
2019-01-11T07:39:00.243Z,48.43
2019-01-11T07:41:31.522Z,53.10
2019-01-11T07:44:02.810Z,50.00
2019-01-11T07:46:39.834Z,52.73
2019-01-11T07:49:11.155Z,52.63
2019-01-11T07:51:42.523Z,53.20
2019-01-11T07:54:13.819Z,56.37
2019-01-11T07:56:44.960Z,53.73
2019-01-11T07:59:16.439Z,60.97
2019-01-11T08:01:47.666Z,46.83
2019-01-11T08:04:18.850Z,47.73
2019-01-11T08:06:50.161Z,41.60
2019-01-11T08:09:21.294Z,56.17
2019-01-11T08:11:52.574Z,49.70
2019-01-11T08:14:23.803Z,53.00
2019-01-11T08:16:55.073Z,49.07
2019-01-11T08:19:26.212Z,55.27
2019-01-11T08:21:57.500Z,44.83
2019-01-11T08:24:28.692Z,57.80
2019-01-11T08:26:59.985Z,42.97
2019-01-11T08:29:31.217Z,42.43
2019-01-11T08:32:02.508Z,48.30
2019-01-11T08:34:33.765Z,40.17
2019-01-11T08:37:05.418Z,39.87
2019-01-11T08:39:36.684Z,44.77
2019-01-11T08:42:07.888Z,43.50
2019-01-11T08:44:39.204Z,42.67
2019-01-11T08:47:10.451Z,46.87
2019-01-11T08:49:41.732Z,44.17
2019-01-11T08:52:12.982Z,52.43
2019-01-11T08:54:44.308Z,45.17
2019-01-11T08:57:15.499Z,58.00
2019-01-11T08:59:46.794Z,56.00
2019-01-11T09:02:18.048Z,44.47
2019-01-11T09:04:49.319Z,61.20
2019-01-11T09:07:20.602Z,64.30
2019-01-11T09:09:51.881Z,63.27
2019-01-11T09:12:23.070Z,52.33
2019-01-11T09:14:54.802Z,70.03
2019-01-11T09:17:25.953Z,50.57
2019-01-11T09:19:57.239Z,64.77
2019-01-11T09:22:28.423Z,55.03
2019-01-11T09:24:59.697Z,84.13
2019-01-11T09:27:30.977Z,59.57
2019-01-11T09:30:02.061Z,65.80
2019-01-11T09:32:33.245Z,63.37
2019-01-11T09:35:05.141Z,65.57
2019-01-11T09:37:36.468Z,76.03
2019-01-11T09:40:08.255Z,68.60
2019-01-11T09:42:39.518Z,76.07
2019-01-11T09:45:11.149Z,83.60
2019-01-11T09:47:42.448Z,74.87
2019-01-11T09:50:13.650Z,65.40
2019-01-11T09:52:44.880Z,62.00
2019-01-11T09:55:16.684Z,71.63
2019-01-11T09:57:47.984Z,63.23
2019-01-11T10:00:26.830Z,61.43
2019-01-11T10:03:04.205Z,64.67
2019-01-11T10:05:35.442Z,73.97
2019-01-11T10:08:06.769Z,68.73
2019-01-11T10:10:38.015Z,77.13
2019-01-11T10:13:09.208Z,79.07
2019-01-11T10:15:40.745Z,80.50
2019-01-11T10:18:11.985Z,80.03
2019-01-11T10:20:43.250Z,69.13
2019-01-11T10:23:14.740Z,60.97
2019-01-11T10:25:45.994Z,56.80
2019-01-11T10:28:17.226Z,58.30
2019-01-11T10:30:48.475Z,62.03
2019-01-11T10:33:19.781Z,64.93
2019-01-11T10:35:51.023Z,61.50
2019-01-11T10:38:22.171Z,64.37
2019-01-11T10:40:53.391Z,65.07
2019-01-11T10:43:24.568Z,64.53
2019-01-11T10:45:55.813Z,58.70
2019-01-11T10:48:27.112Z,59.37
2019-01-11T10:50:58.399Z,68.60
2019-01-11T10:53:29.647Z,73.77
2019-01-11T10:56:00.899Z,58.07
2019-01-11T10:58:32.190Z,64.10
2019-01-11T11:01:03.441Z,77.33
2019-01-11T11:03:34.710Z,65.53
2019-01-11T11:06:06.073Z,68.17
2019-01-11T11:08:37.410Z,70.63
2019-01-11T11:11:08.675Z,69.47
2019-01-11T11:13:39.999Z,64.43
2019-01-11T11:16:11.232Z,71.93
2019-01-11T11:18:42.543Z,76.53
2019-01-11T11:21:13.769Z,72.13
2019-01-11T11:23:45.092Z,88.83
2019-01-11T11:26:16.432Z,76.03
2019-01-11T11:28:47.745Z,77.53
2019-01-11T11:31:19.033Z,93.70
2019-01-11T11:33:50.272Z,91.93
2019-01-11T11:36:21.471Z,78.03
2019-01-11T11:38:52.685Z,70.90
2019-01-11T11:41:24.073Z,74.77
2019-01-11T11:43:55.230Z,63.97
2019-01-11T11:46:26.477Z,71.40
2019-01-11T11:48:57.803Z,64.93
2019-01-11T11:51:29.155Z,58.40
2019-01-11T11:54:00.469Z,64.33
2019-01-11T11:56:31.697Z,57.87
2019-01-11T11:59:02.892Z,48.10
2019-01-11T12:01:34.178Z,62.07
2019-01-11T12:04:07.116Z,59.13
2019-01-11T12:06:38.549Z,60.67
2019-01-11T12:09:12.084Z,64.17
2019-01-11T12:11:43.325Z,44.00
2019-01-11T12:14:14.600Z,46.70
2019-01-11T12:16:45.854Z,43.07
2019-01-11T12:19:17.153Z,52.67
2019-01-11T12:21:48.504Z,49.50
2019-01-11T12:24:19.784Z,46.63
2019-01-11T12:26:51.057Z,42.63
2019-01-11T12:29:22.409Z,45.90
2019-01-11T12:31:53.728Z,36.47
2019-01-11T12:34:25.006Z,42.67
2019-01-11T12:36:56.233Z,37.50
2019-01-11T12:39:27.374Z,44.67
2019-01-11T12:41:58.667Z,34.20
2019-01-11T12:44:29.918Z,38.57
2019-01-11T12:47:01.209Z,38.20
2019-01-11T12:49:32.493Z,33.67
2019-01-11T12:52:03.795Z,31.10
2019-01-11T12:54:35.076Z,33.53
2019-01-11T12:57:06.494Z,32.43
2019-01-11T12:59:37.697Z,31.63
2019-01-11T13:02:08.985Z,26.20
2019-01-11T13:04:40.486Z,28.93
2019-01-11T13:07:11.749Z,31.30
2019-01-11T13:09:43.030Z,24.67
2019-01-11T13:12:14.195Z,28.27
2019-01-11T13:14:45.549Z,27.70
2019-01-11T13:17:16.791Z,20.73
2019-01-11T13:19:48.061Z,25.90
2019-01-11T13:22:19.315Z,21.90
2019-01-11T13:24:50.580Z,24.00
2019-01-11T13:27:21.820Z,16.80
2019-01-11T13:29:52.989Z,16.93
2019-01-11T13:32:24.298Z,15.90
2019-01-11T13:34:55.568Z,20.37
2019-01-11T13:37:26.854Z,13.80
2019-01-11T13:39:58.092Z,11.27
2019-01-11T13:42:29.399Z,12.90
2019-01-11T13:45:00.738Z,15.03
2019-01-11T13:47:33.205Z,19.67
2019-01-11T13:50:06.209Z,16.53
2019-01-11T13:52:37.601Z,16.80
2019-01-11T13:55:08.829Z,11.13
2019-01-11T13:57:40.113Z,17.83
2019-01-11T14:00:14.687Z,12.67
2019-01-11T14:02:46.021Z,11.93
2019-01-11T14:05:17.337Z,13.83
2019-01-11T14:07:48.579Z,14.80
2019-01-11T14:10:19.846Z,13.77
2019-01-11T14:12:51.089Z,12.83
2019-01-11T14:15:22.330Z,15.60
2019-01-11T14:17:53.642Z,11.83
2019-01-11T14:20:24.910Z,13.17
2019-01-11T14:22:56.175Z,12.70
2019-01-11T14:25:27.465Z,10.13
2019-01-11T14:27:58.742Z,14.27
2019-01-11T14:30:30.020Z,11.17
2019-01-11T14:33:01.445Z,9.30
2019-01-11T14:35:32.663Z,12.57
2019-01-11T14:38:03.966Z,12.07
2019-01-11T14:40:35.354Z,9.17
2019-01-11T14:43:06.647Z,9.67
2019-01-11T14:45:39.248Z,12.27
2019-01-11T14:48:10.790Z,11.20
2019-01-11T14:50:41.945Z,9.90
2019-01-11T14:53:13.283Z,9.27
2019-01-11T14:55:44.443Z,8.47
2019-01-11T14:58:15.710Z,9.00
2019-01-11T15:00:46.952Z,12.70
2019-01-11T15:03:18.252Z,9.70
2019-01-11T15:05:49.565Z,8.60
2019-01-11T15:08:20.901Z,10.30
2019-01-11T15:10:52.145Z,10.30
2019-01-11T15:13:23.486Z,10.47
2019-01-11T15:15:54.771Z,8.73
2019-01-11T15:18:26.171Z,10.90
2019-01-11T15:20:57.429Z,9.33
2019-01-11T15:23:28.768Z,8.80
2019-01-11T15:26:00.069Z,6.10
2019-01-11T15:28:31.376Z,13.60
2019-01-11T15:31:02.673Z,10.50
2019-01-11T15:33:33.980Z,8.77
2019-01-11T15:36:05.410Z,8.43
2019-01-11T15:38:36.772Z,12.70
2019-01-11T15:41:08.087Z,7.17
2019-01-11T15:43:39.403Z,6.53
2019-01-11T15:46:15.065Z,11.80
2019-01-11T15:48:49.913Z,10.23
2019-01-11T15:51:25.258Z,5.87
2019-01-11T15:53:57.240Z,10.20
2019-01-11T15:56:28.844Z,7.80
2019-01-11T15:59:00.613Z,11.57
2019-01-11T16:01:32.067Z,7.93
2019-01-11T16:04:09.102Z,6.37
2019-01-11T16:06:42.806Z,5.90
2019-01-11T16:10:13.222Z,11.10
2019-01-11T16:13:07.814Z,9.13
2019-01-11T16:16:33.863Z,5.93
2019-01-11T16:19:05.241Z,11.30
2019-01-11T16:21:36.464Z,9.30
2019-01-11T16:24:08.301Z,7.20
2019-01-11T16:26:39.575Z,9.73
2019-01-11T16:29:10.791Z,9.77
2019-01-11T16:31:42.047Z,7.33
2019-01-11T16:34:13.349Z,15.40
2019-01-11T16:36:44.503Z,7.97
2019-01-11T16:39:15.863Z,7.50
2019-01-11T16:41:47.107Z,9.10
2019-01-11T16:44:18.436Z,6.93
2019-01-11T16:46:49.685Z,5.80
2019-01-11T16:49:20.869Z,5.90
2019-01-11T16:51:52.109Z,13.00
2019-01-11T16:54:23.292Z,15.00
2019-01-11T16:56:54.520Z,9.60
2019-01-11T16:59:25.876Z,7.80
2019-01-11T17:01:57.137Z,8.50
2019-01-11T17:04:28.380Z,7.97
2019-01-11T17:06:59.704Z,9.07
2019-01-11T17:09:30.980Z,9.93
2019-01-11T17:12:02.225Z,8.10
2019-01-11T17:14:33.441Z,8.10
2019-01-11T17:17:04.956Z,9.57
2019-01-11T17:19:36.297Z,11.03
2019-01-11T17:22:07.557Z,7.80
2019-01-11T17:24:38.791Z,13.10
2019-01-11T17:27:10.054Z,9.30
2019-01-11T17:29:46.951Z,8.43
2019-01-11T17:32:14.199Z,6.43
2019-01-11T17:34:45.403Z,7.70
2019-01-11T17:37:16.539Z,11.50
2019-01-11T17:39:47.837Z,10.53
2019-01-11T17:42:19.080Z,9.70
2019-01-11T17:44:50.421Z,11.30
2019-01-11T17:47:21.648Z,11.43
2019-01-11T17:49:52.936Z,11.20
2019-01-11T17:52:24.109Z,10.43
2019-01-11T17:54:55.446Z,12.73
2019-01-11T17:57:26.671Z,9.77
2019-01-11T17:59:57.965Z,8.40
2019-01-11T18:02:29.214Z,10.00
2019-01-11T18:05:00.591Z,9.57
2019-01-11T18:07:31.803Z,7.37
2019-01-11T18:10:03.222Z,11.23
2019-01-11T18:12:34.385Z,12.93
2019-01-11T18:15:08.347Z,9.37
2019-01-11T18:17:39.530Z,8.63
2019-01-11T18:20:18.833Z,23.57
2019-01-11T18:22:50.075Z,7.93
2019-01-11T18:25:21.337Z,19.00
2019-01-11T18:27:52.591Z,10.17
2019-01-11T18:30:24.055Z,8.47
2019-01-11T18:32:55.287Z,8.67
2019-01-11T18:35:26.530Z,10.60
2019-01-11T18:37:57.788Z,11.10
2019-01-11T18:40:29.406Z,6.17
2019-01-11T18:43:02.040Z,8.23
2019-01-11T18:45:33.429Z,9.67
2019-01-11T18:48:04.890Z,17.43
2019-01-11T18:50:36.078Z,8.73
2019-01-11T18:53:13.492Z,7.50
2019-01-11T18:55:43.196Z,13.27
2019-01-11T18:58:14.404Z,10.70
2019-01-11T19:00:45.723Z,6.60
2019-01-11T19:03:16.963Z,11.43
2019-01-11T19:05:48.729Z,14.43
2019-01-11T19:08:20.102Z,5.53
2019-01-11T19:10:51.308Z,7.60
2019-01-11T19:13:22.597Z,8.40
2019-01-11T19:15:53.844Z,9.30
2019-01-11T19:18:24.964Z,15.70
2019-01-11T19:20:56.223Z,12.80
2019-01-11T19:23:27.471Z,10.70
2019-01-11T19:25:58.722Z,8.57
2019-01-11T19:28:29.989Z,13.20
2019-01-11T19:31:01.332Z,12.40
2019-01-11T19:33:32.600Z,12.93
2019-01-11T19:36:03.908Z,10.20
2019-01-11T19:38:35.298Z,8.67
2019-01-11T19:41:06.931Z,12.43
2019-01-11T19:43:38.124Z,8.10
2019-01-11T19:46:09.434Z,10.00
2019-01-11T19:48:40.706Z,10.53
2019-01-11T19:51:11.962Z,9.10
2019-01-11T19:53:43.316Z,9.67
2019-01-11T19:56:14.476Z,11.73
2019-01-11T19:58:45.806Z,17.37
2019-01-11T20:01:17.232Z,10.93
2019-01-11T20:03:48.448Z,12.03
2019-01-11T20:06:19.680Z,15.57
2019-01-11T20:08:50.946Z,13.40
2019-01-11T20:11:22.187Z,10.57
2019-01-11T20:13:53.444Z,9.00
2019-01-11T20:16:24.702Z,7.00
2019-01-11T20:18:57.236Z,11.17
2019-01-11T20:21:28.577Z,11.87
2019-01-11T20:23:59.840Z,20.90
2019-01-11T20:26:31.085Z,8.23
2019-01-11T20:29:02.362Z,7.30
2019-01-11T20:31:33.542Z,13.37
2019-01-11T20:34:04.919Z,8.17
2019-01-11T20:36:47.563Z,10.27
2019-01-11T20:39:18.811Z,8.37
2019-01-11T20:41:50.041Z,9.97
2019-01-11T20:44:21.323Z,10.50
2019-01-11T20:46:52.591Z,9.93
2019-01-11T20:49:23.841Z,19.30
2019-01-11T20:51:55.060Z,8.40
2019-01-11T20:54:26.325Z,10.90
2019-01-11T20:56:57.525Z,7.93
2019-01-11T20:59:28.864Z,8.57
2019-01-11T21:02:00.051Z,8.23
2019-01-11T21:04:31.407Z,9.23
2019-01-11T21:07:02.627Z,6.53
2019-01-11T21:09:33.828Z,10.90
2019-01-11T21:12:05.091Z,10.83
2019-01-11T21:14:36.356Z,10.07
2019-01-11T21:17:07.761Z,9.07
2019-01-11T21:19:39.025Z,6.90
2019-01-11T21:22:10.312Z,6.70
2019-01-11T21:24:41.565Z,5.47
2019-01-11T21:27:12.745Z,5.37
2019-01-11T21:29:43.999Z,9.17
2019-01-11T21:32:15.298Z,9.20
2019-01-11T21:34:46.541Z,8.20
2019-01-11T21:37:17.848Z,4.50
2019-01-11T21:39:49.067Z,6.77
2019-01-11T21:42:20.346Z,9.50
2019-01-11T21:44:51.580Z,7.60
2019-01-11T21:47:22.952Z,7.00
2019-01-11T21:49:54.181Z,9.23
2019-01-11T21:52:25.466Z,7.53
2019-01-11T21:54:56.700Z,8.43
2019-01-11T21:57:28.009Z,6.10
2019-01-11T21:59:59.246Z,5.67
2019-01-11T22:02:30.493Z,9.57
2019-01-11T22:05:01.833Z,5.80
2019-01-11T22:07:33.110Z,11.73
2019-01-11T22:10:05.342Z,4.77
2019-01-11T22:12:36.609Z,6.53
2019-01-11T22:15:10.046Z,6.97
2019-01-11T22:17:41.295Z,8.20
2019-01-11T22:20:15.222Z,8.23
2019-01-11T22:22:46.676Z,7.93
2019-01-11T22:25:38.545Z,7.50
2019-01-11T22:28:09.860Z,7.10
2019-01-11T22:30:41.085Z,5.30
2019-01-11T22:33:12.332Z,12.50
2019-01-11T22:35:43.570Z,7.23
2019-01-11T22:38:14.819Z,6.80
2019-01-11T22:40:46.100Z,5.57
2019-01-11T22:43:17.321Z,5.63
2019-01-11T22:45:48.601Z,10.10
2019-01-11T22:48:19.765Z,6.47
2019-01-11T22:50:51.055Z,4.93
2019-01-11T22:53:22.238Z,8.13
2019-01-11T22:55:53.479Z,4.87
2019-01-11T22:58:24.771Z,8.23
2019-01-11T23:01:18.668Z,7.03
2019-01-11T23:03:55.689Z,10.17
2019-01-11T23:07:05.420Z,11.33
2019-01-11T23:09:53.840Z,7.53
2019-01-11T23:12:45.505Z,4.03
2019-01-11T23:15:23.351Z,11.73
2019-01-11T23:18:00.291Z,10.60
2019-01-11T23:20:31.560Z,12.37
2019-01-11T23:23:02.664Z,6.43
2019-01-11T23:25:33.939Z,8.40
2019-01-11T23:28:05.138Z,11.37
2019-01-11T23:30:36.428Z,7.70
2019-01-11T23:33:07.657Z,11.73
2019-01-11T23:35:58.844Z,8.40
2019-01-11T23:38:30.136Z,10.43
2019-01-11T23:41:01.384Z,11.53
2019-01-11T23:43:42.735Z,10.80
2019-01-11T23:46:21.049Z,10.43
2019-01-11T23:48:52.424Z,14.20
2019-01-11T23:51:23.729Z,13.97
2019-01-11T23:53:54.960Z,12.40
2019-01-11T23:56:30.030Z,14.83
2019-01-11T23:59:03.936Z,13.73
